Time;durP1;ratioP1;P1;durP2;ratioP2;P2;SDS_P1;SDS_P2;PMS_P1;PMS_P2;Temp;Humidity;BMP_temperature;BMP_pressure;BME280_temperature;BME280_humidity;BME280_pressure;Samples;Min_cycle;Max_cycle;Signal;HPM_P1;HPM_P2
2022/09/18 00:01:11;;;;;;;6.70;1.50;;;;;;;14.69;84.19;95213.63;5093711;28;20014;-59
2022/09/18 00:03:38;;;;;;;9.77;1.50;;;;;;;14.68;83.68;95212.75;5094029;28;20444;-60
2022/09/18 00:06:08;;;;;;;4.63;1.10;;;;;;;14.68;83.52;95215.41;5093866;28;20044;-60
2022/09/18 00:08:37;;;;;;;7.68;1.40;;;;;;;14.69;83.17;95205.72;5094029;28;20054;-59
2022/09/18 00:11:05;;;;;;;9.00;1.15;;;;;;;14.68;82.90;95204.88;5093698;28;20047;-60
2022/09/18 00:13:34;;;;;;;5.13;1.20;;;;;;;14.75;82.45;95202.63;5093435;28;20052;-59
2022/09/18 00:16:01;;;;;;;5.80;1.10;;;;;;;14.77;81.65;95200.69;5093551;28;20052;-60
2022/09/18 00:18:28;;;;;;;3.70;1.20;;;;;;;14.74;82.07;95203.56;5093775;28;20040;-60
2022/09/18 00:20:56;;;;;;;5.97;1.05;;;;;;;14.72;82.13;95208.13;5093482;28;20052;-60
2022/09/18 00:23:23;;;;;;;2.15;1.40;;;;;;;14.73;82.02;95200.13;5093603;28;20040;-60
2022/09/18 00:25:50;;;;;;;7.90;1.10;;;;;;;14.68;81.64;95193.50;5093581;28;20101;-60
2022/09/18 00:28:17;;;;;;;3.03;1.08;;;;;;;14.56;81.85;95193.47;5093528;28;20101;-60
2022/09/18 00:30:45;;;;;;;13.93;1.65;;;;;;;14.55;82.09;95198.84;5093516;28;20048;-59
2022/09/18 00:33:12;;;;;;;8.07;1.33;;;;;;;14.52;81.61;95194.69;5093470;28;20064;-59
2022/09/18 00:35:43;;;;;;;12.25;1.48;;;;;;;14.49;82.23;95185.22;5093441;28;20474;-60
2022/09/18 00:38:10;;;;;;;4.75;1.20;;;;;;;14.49;82.32;95179.97;5093632;28;20417;-59
2022/09/18 00:40:37;;;;;;;5.82;1.23;;;;;;;14.45;82.18;95178.50;5093263;28;20071;-60
2022/09/18 00:43:18;;;;;;;15.55;1.40;;;;;;;14.46;81.80;95184.59;5093372;28;20048;-60
2022/09/18 00:45:52;;;;;;;3.90;1.23;;;;;;;14.35;81.71;95188.88;5093311;28;20080;-59
2022/09/18 00:48:19;;;;;;;5.97;1.17;;;;;;;14.26;81.69;95195.69;5093305;28;20055;-59
2022/09/18 00:50:46;;;;;;;4.43;1.17;;;;;;;14.26;82.57;95190.41;5093104;28;20044;-60
2022/09/18 00:53:13;;;;;;;8.48;1.10;;;;;;;14.30;82.79;95188.38;5093139;28;20048;-59
2022/09/18 00:55:41;;;;;;;7.47;1.40;;;;;;;14.19;82.02;95186.56;5093223;28;20048;-59
2022/09/18 00:58:09;;;;;;;7.05;1.17;;;;;;;14.18;81.90;95194.56;5093316;28;20044;-59
2022/09/18 01:00:37;;;;;;;7.47;0.90;;;;;;;14.23;82.10;95192.41;5093327;28;20044;-60
2022/09/18 01:03:06;;;;;;;7.22;1.00;;;;;;;14.19;81.51;95190.97;5093077;28;20504;-59
2022/09/18 01:05:47;;;;;;;7.10;1.10;;;;;;;14.15;81.46;95187.75;5093033;28;20456;-59
2022/09/18 01:08:28;;;;;;;4.13;1.00;;;;;;;14.16;82.02;95189.41;5093072;28;20048;-59
2022/09/18 01:11:13;;;;;;;6.50;1.05;;;;;;;14.18;81.89;95210.34;5092957;28;20044;-59
2022/09/18 01:13:49;;;;;;;6.45;1.05;;;;;;;14.19;82.35;95214.66;5097091;28;20052;-60
2022/09/18 01:16:25;;;;;;;7.07;2.00;;;;;;;14.19;81.90;95214.66;5097016;28;20456;-59
2022/09/18 01:19:02;;;;;;;9.23;1.10;;;;;;;14.11;81.99;95209.94;5096912;28;20044;-60
2022/09/18 01:21:35;;;;;;;6.65;1.00;;;;;;;14.09;82.85;95209.22;5096968;28;20048;-59
2022/09/18 01:24:33;;;;;;;4.53;1.00;;;;;;;14.07;83.12;95204.09;5096990;28;20545;-59
2022/09/18 01:27:03;;;;;;;5.30;1.38;;;;;;;14.10;84.10;95192.50;5096966;28;20055;-59
2022/09/18 01:29:48;;;;;;;7.75;1.30;;;;;;;14.02;83.09;95185.16;5096776;28;20044;-60
2022/09/18 01:32:22;;;;;;;10.35;1.00;;;;;;;13.84;84.40;95182.94;5096712;28;20048;-59
2022/09/18 01:34:57;;;;;;;8.95;1.30;;;;;;;13.77;85.20;95184.34;5096642;28;20078;-60
2022/09/18 01:37:30;;;;;;;5.40;1.60;;;;;;;13.79;86.41;95189.50;5096601;28;20135;-59
2022/09/18 01:40:07;;;;;;;3.15;1.50;;;;;;;13.82;86.54;95184.84;5096518;28;20044;-60
2022/09/18 01:42:36;;;;;;;10.55;1.27;;;;;;;13.86;86.57;95174.94;5096626;28;20047;-60
2022/09/18 01:45:08;;;;;;;6.50;1.45;;;;;;;13.99;87.85;95188.03;5096614;28;20048;-59
2022/09/18 01:47:41;;;;;;;4.47;1.17;;;;;;;13.96;88.89;95170.69;5096398;28;20084;-59
2022/09/18 01:50:10;;;;;;;7.22;1.20;;;;;;;13.99;88.79;95169.63;5096579;28;20056;-59
2022/09/18 01:52:41;;;;;;;5.60;1.50;;;;;;;13.98;86.81;95171.44;5096492;28;20072;-59
2022/09/18 01:55:15;;;;;;;3.33;1.08;;;;;;;14.01;86.58;95176.47;5096323;28;20075;-59
2022/09/18 01:57:48;;;;;;;1.73;1.27;;;;;;;14.05;86.02;95178.88;5096345;28;20137;-59
2022/09/18 02:00:17;;;;;;;7.15;1.27;;;;;;;14.08;85.40;95181.25;5096346;28;20135;-60
2022/09/18 02:02:50;;;;;;;1.70;1.10;;;;;;;14.15;85.42;95190.38;5096176;28;20555;-60
2022/09/18 02:05:24;;;;;;;8.85;1.05;;;;;;;14.17;84.33;95180.56;5096420;28;20040;-60
2022/09/18 02:08:02;;;;;;;2.80;1.10;;;;;;;14.14;84.23;95180.78;5096124;28;20055;-60
2022/09/18 02:10:34;;;;;;;9.63;1.30;;;;;;;14.12;84.64;95175.66;5096097;28;20127;-60
2022/09/18 02:13:03;;;;;;;2.50;1.02;;;;;;;14.13;84.84;95179.97;5095872;28;20058;-60
2022/09/18 02:15:38;;;;;;;4.70;1.10;;;;;;;14.15;84.42;95187.75;5095804;28;20051;-60
2022/09/18 02:18:10;;;;;;;11.98;1.50;;;;;;;14.12;83.63;95190.59;5095947;28;20048;-60
2022/09/18 02:20:38;;;;;;;8.00;1.00;;;;;;;14.11;83.12;95189.75;5096022;28;20131;-60
2022/09/18 02:23:07;;;;;;;2.55;0.90;;;;;;;14.09;82.86;95199.53;5095824;28;20121;-60
2022/09/18 02:25:39;;;;;;;8.20;1.10;;;;;;;14.10;83.42;95205.66;5095880;28;20127;-60
2022/09/18 02:28:09;;;;;;;3.90;1.13;;;;;;;14.07;83.93;95214.59;5095654;28;20097;-60
2022/09/18 02:30:39;;;;;;;4.30;1.13;;;;;;;14.08;84.24;95226.78;5095700;28;20101;-60
2022/09/18 02:33:25;;;;;;;8.55;1.15;;;;;;;14.12;84.04;95230.03;5095655;28;20089;-60
2022/09/18 02:36:11;;;;;;;4.43;1.10;;;;;;;14.12;83.38;95222.97;5095468;28;20044;-60
2022/09/18 02:38:45;;;;;;;4.93;1.17;;;;;;;14.10;83.43;95222.28;5095431;28;20048;-60
2022/09/18 02:41:20;;;;;;;8.70;0.95;;;;;;;14.08;82.94;95218.06;5095577;28;20056;-60
2022/09/18 02:43:54;;;;;;;6.75;1.02;;;;;;;14.08;83.26;95232.03;5095293;28;20055;-60
2022/09/18 02:46:32;;;;;;;4.40;0.88;;;;;;;14.08;83.26;95229.41;5095553;28;20040;-60
2022/09/18 02:49:09;;;;;;;7.75;1.40;;;;;;;14.08;83.25;95229.41;5095300;28;20048;-59
2022/09/18 02:51:44;;;;;;;6.53;1.35;;;;;;;14.05;82.55;95231.44;5095236;28;20051;-60
2022/09/18 02:54:15;;;;;;;3.38;1.10;;;;;;;14.04;83.53;95233.22;5095299;28;20048;-60
2022/09/18 02:56:49;;;;;;;2.05;1.00;;;;;;;14.05;84.77;95240.16;5095199;28;20113;-60
2022/09/18 02:59:22;;;;;;;4.55;1.20;;;;;;;14.03;84.64;95245.53;5095059;28;20048;-60
2022/09/18 03:01:52;;;;;;;6.30;1.08;;;;;;;14.06;84.89;95257.59;5094991;28;20051;-60
2022/09/18 03:04:22;;;;;;;3.58;1.10;;;;;;;14.09;85.21;95262.63;5095064;28;20105;-60
2022/09/18 03:06:50;;;;;;;6.60;1.13;;;;;;;14.13;84.88;95261.47;5094981;28;20101;-60
2022/09/18 03:09:17;;;;;;;9.05;1.60;;;;;;;14.15;84.27;95267.44;5094890;28;20501;-60
2022/09/18 03:11:44;;;;;;;4.05;2.15;;;;;;;14.11;90.69;95271.25;5094754;28;20048;-60
2022/09/18 03:14:12;;;;;;;3.80;2.13;;;;;;;14.08;95.82;95268.84;5094726;28;20484;-60
2022/09/18 03:16:39;;;;;;;5.05;2.42;;;;;;;14.15;96.37;95277.16;5094538;28;20058;-60
2022/09/18 03:19:07;;;;;;;4.10;2.30;;;;;;;14.23;97.08;95287.94;5094672;28;20089;-60
2022/09/18 03:21:34;;;;;;;5.28;2.30;;;;;;;14.37;97.60;95286.09;5094744;28;20075;-59
2022/09/18 03:24:02;;;;;;;6.03;2.17;;;;;;;14.46;97.46;95281.94;5094622;28;20044;-60
2022/09/18 03:26:29;;;;;;;5.60;2.30;;;;;;;14.57;96.60;95286.41;5095087;28;20129;-60
2022/09/18 03:28:56;;;;;;;4.88;1.92;;;;;;;14.65;96.16;95297.19;5094602;28;20482;-60
2022/09/18 03:31:24;;;;;;;5.60;2.22;;;;;;;14.70;95.65;95294.22;5094522;28;20051;-59
2022/09/18 03:33:51;;;;;;;4.78;2.83;;;;;;;14.78;96.13;95297.19;5094120;28;20048;-60
2022/09/18 03:36:19;;;;;;;11.35;4.10;;;;;;;14.81;96.20;95301.38;5094016;28;20135;-60
2022/09/18 03:38:46;;;;;;;6.75;5.45;;;;;;;14.88;95.82;95305.22;5094464;28;20050;-60
2022/09/18 03:41:13;;;;;;;8.20;7.10;;;;;;;14.89;96.42;95305.09;5094296;28;20452;-59
2022/09/18 03:43:40;;;;;;;11.88;7.88;;;;;;;14.92;95.85;95309.28;5094229;28;20166;-60
2022/09/18 03:46:07;;;;;;;13.25;8.52;;;;;;;14.97;95.58;95322.97;5094386;28;20131;-60
2022/09/18 03:48:34;;;;;;;9.63;8.52;;;;;;;15.01;95.33;95327.03;5094200;28;20044;-59
2022/09/18 03:51:01;;;;;;;9.55;8.65;;;;;;;14.99;94.91;95322.84;5094158;28;20474;-60
2022/09/18 03:53:30;;;;;;;9.18;8.38;;;;;;;14.99;94.17;95336.00;5094204;28;20040;-60
2022/09/18 03:55:57;;;;;;;8.73;7.93;;;;;;;15.08;94.04;95334.47;5093915;28;20106;-60
2022/09/18 03:58:24;;;;;;;9.38;8.45;;;;;;;15.12;93.07;95339.41;5093986;28;20101;-60
2022/09/18 04:00:52;;;;;;;8.90;8.00;;;;;;;15.15;92.88;95352.31;5093993;28;20059;-60
2022/09/18 04:03:18;;;;;;;8.57;7.70;;;;;;;15.20;92.23;95351.13;5094050;28;20433;-60
2022/09/18 04:05:48;;;;;;;8.20;7.50;;;;;;;15.20;91.32;95351.13;5093852;28;20487;-60
2022/09/18 04:08:16;;;;;;;12.50;8.55;;;;;;;15.27;91.11;95358.44;5093891;28;20051;-60
2022/09/18 04:10:44;;;;;;;9.82;8.40;;;;;;;15.36;91.06;95353.44;5093681;28;20577;-60
2022/09/18 04:13:11;;;;;;;8.70;7.93;;;;;;;15.38;90.98;95352.34;5093491;28;20105;-60
2022/09/18 04:15:38;;;;;;;10.10;7.80;;;;;;;15.43;90.67;95354.66;5093673;28;20048;-60
2022/09/18 04:18:06;;;;;;;8.48;6.93;;;;;;;15.51;89.63;95356.69;5093472;28;20059;-60
2022/09/18 04:20:33;;;;;;;10.68;6.47;;;;;;;15.50;89.08;95358.50;5093718;28;20048;-60
2022/09/18 04:23:00;;;;;;;6.00;5.25;;;;;;;15.45;88.62;95372.97;5093570;28;20405;-60
2022/09/18 04:25:27;;;;;;;9.00;6.03;;;;;;;15.35;89.35;95381.56;5093630;28;20394;-60
2022/09/18 04:27:56;;;;;;;8.45;5.57;;;;;;;15.35;89.78;95386.03;5093556;28;20052;-60
2022/09/18 04:30:23;;;;;;;6.38;5.78;;;;;;;15.32;89.74;95392.34;5093530;28;20089;-60
2022/09/18 04:32:50;;;;;;;9.02;5.40;;;;;;;15.34;89.45;95390.44;5093394;28;20047;-60
2022/09/18 04:35:18;;;;;;;6.38;3.60;;;;;;;15.38;87.53;95385.78;5093399;28;20050;-60
2022/09/18 04:37:45;;;;;;;22.20;2.65;;;;;;;15.38;84.10;95385.78;5093220;28;20052;-60
2022/09/18 04:40:13;;;;;;;2.97;2.78;;;;;;;15.39;83.88;95401.44;5093244;28;20044;-60
2022/09/18 04:42:40;;;;;;;3.00;2.28;;;;;;;15.33;82.63;95406.34;5093322;28;20074;-60
2022/09/18 04:45:10;;;;;;;6.78;1.73;;;;;;;15.38;80.36;95409.50;5093210;28;20066;-60
2022/09/18 04:47:37;;;;;;;6.18;2.20;;;;;;;15.44;80.41;95429.28;5092392;28;20058;-60
2022/09/18 04:50:07;;;;;;;3.60;2.30;;;;;;;15.57;81.43;95437.06;5093434;28;20049;-60
2022/09/18 04:52:34;;;;;;;3.70;2.10;;;;;;;15.78;81.56;95445.16;5093227;28;20097;-60
2022/09/18 04:55:01;;;;;;;8.27;1.77;;;;;;;16.26;81.44;95443.28;5093135;28;20080;-59
2022/09/18 04:57:29;;;;;;;5.50;1.60;;;;;;;16.81;75.76;95455.69;5093352;28;20486;-59
2022/09/18 04:59:57;;;;;;;6.90;1.20;;;;;;;17.29;72.63;95457.16;5093018;28;20051;-60
2022/09/18 05:02:25;;;;;;;2.15;1.20;;;;;;;17.45;71.02;95465.59;5093175;28;20048;-60
2022/09/18 05:04:52;;;;;;;2.45;1.13;;;;;;;17.32;70.61;95476.34;5093276;28;20445;-59
2022/09/18 05:07:20;;;;;;;8.90;1.45;;;;;;;17.14;70.42;95483.00;5093118;28;20055;-60
2022/09/18 05:09:47;;;;;;;2.15;0.93;;;;;;;16.99;70.28;95484.22;5093186;28;20040;-60
2022/09/18 05:12:14;;;;;;;1.17;0.80;;;;;;;17.20;70.99;95486.09;5093131;28;20048;-60
2022/09/18 05:14:42;;;;;;;1.70;0.90;;;;;;;17.52;68.88;95491.38;5092997;28;20048;-60
2022/09/18 05:17:09;;;;;;;3.45;1.15;;;;;;;17.66;68.55;95499.97;5092850;28;20044;-60
2022/09/18 05:19:38;;;;;;;1.33;0.93;;;;;;;17.62;67.29;95506.50;5093086;28;20072;-60
2022/09/18 05:22:05;;;;;;;1.67;0.85;;;;;;;17.76;66.89;95503.53;5093024;28;20456;-60
2022/09/18 05:24:32;;;;;;;1.17;0.90;;;;;;;17.80;66.04;95504.13;5092993;28;20044;-60
2022/09/18 05:27:00;;;;;;;3.28;1.00;;;;;;;17.68;65.76;95509.47;5092875;28;20131;-60
2022/09/18 05:29:27;;;;;;;2.60;0.73;;;;;;;18.12;64.92;95499.75;5092852;28;20097;-60
2022/09/18 05:31:54;;;;;;;1.05;0.65;;;;;;;19.36;63.49;95509.38;5092780;28;20044;-60
2022/09/18 05:34:22;;;;;;;4.78;0.88;;;;;;;19.88;58.00;95515.34;5092709;28;20044;-60
2022/09/18 05:36:51;;;;;;;1.75;0.68;;;;;;;20.24;55.94;95512.94;5092744;28;20102;-60
2022/09/18 05:39:19;;;;;;;1.67;0.73;;;;;;;21.10;54.84;95517.38;5092788;28;20413;-60
2022/09/18 05:41:50;;;;;;;1.33;0.55;;;;;;;22.05;52.17;95532.06;5092629;28;20440;-60
2022/09/18 05:44:18;;;;;;;3.40;0.75;;;;;;;22.11;50.63;95539.44;5092630;28;20044;-57
2022/09/18 05:46:47;;;;;;;2.78;0.70;;;;;;;21.28;51.45;95543.97;5092656;28;20067;-60
2022/09/18 05:49:15;;;;;;;2.25;0.80;;;;;;;20.65;51.12;95544.53;5092595;28;20094;-60
2022/09/18 05:51:43;;;;;;;3.70;0.98;;;;;;;19.77;55.15;95542.84;5093110;28;20456;-60
2022/09/18 05:54:12;;;;;;;1.58;1.40;;;;;;;19.08;56.34;95545.44;5092797;28;20076;-59
2022/09/18 05:56:39;;;;;;;4.78;1.17;;;;;;;18.66;57.55;95545.41;5092613;28;20048;-59
2022/09/18 05:59:06;;;;;;;1.55;1.27;;;;;;;18.34;60.19;95542.91;5095683;28;20131;-60
2022/09/18 06:01:33;;;;;;;2.08;1.48;;;;;;;17.93;62.23;95548.88;5096079;28;20127;-60
2022/09/18 06:04:01;;;;;;;7.78;5.38;;;;;;;17.41;60.41;95557.50;5096133;28;20109;-60
2022/09/18 06:06:29;;;;;;;2.58;1.70;;;;;;;17.03;59.69;95555.16;5096090;28;20079;-60
2022/09/18 06:08:56;;;;;;;3.50;2.70;;;;;;;16.76;62.21;95548.47;5096051;28;20044;-59
2022/09/18 06:11:25;;;;;;;1.90;1.80;;;;;;;16.67;64.68;95557.97;5096066;28;20052;-59
2022/09/18 06:13:52;;;;;;;6.13;1.30;;;;;;;16.58;65.09;95560.50;5095819;28;20044;-59
2022/09/18 06:16:20;;;;;;;3.75;0.95;;;;;;;16.45;63.23;95557.94;5095928;28;20044;-60
2022/09/18 06:18:48;;;;;;;1.08;0.80;;;;;;;16.52;63.59;95567.91;5095815;28;20466;-59
2022/09/18 06:21:15;;;;;;;1.00;0.85;;;;;;;16.69;66.13;95563.13;5095874;28;20044;-59
2022/09/18 06:23:43;;;;;;;0.77;0.77;;;;;;;16.68;63.23;95566.72;5095880;28;20048;-59
2022/09/18 06:26:11;;;;;;;1.42;0.70;;;;;;;16.71;60.47;95578.84;5096042;28;20051;-59
2022/09/18 06:28:40;;;;;;;1.48;0.80;;;;;;;16.76;61.48;95580.16;5095677;28;20086;-59
2022/09/18 06:31:07;;;;;;;1.40;0.77;;;;;;;16.63;60.12;95588.22;5095531;28;20105;-59
2022/09/18 06:33:35;;;;;;;3.55;0.80;;;;;;;16.51;63.17;95584.72;5095747;28;20056;-59
2022/09/18 06:36:07;;;;;;;2.58;1.05;;;;;;;16.44;64.80;95599.34;5095451;28;20044;-59
2022/09/18 06:38:34;;;;;;;1.83;0.85;;;;;;;16.42;62.79;95602.09;5095348;28;20429;-60
2022/09/18 06:41:02;;;;;;;4.30;0.90;;;;;;;16.51;63.83;95618.19;5095373;28;20043;-59
2022/09/18 06:43:29;;;;;;;0.50;0.50;;;;;;;16.38;59.81;95610.38;5095606;28;20055;-59
2022/09/18 06:45:58;;;;;;;2.45;0.80;;;;;;;16.28;60.05;95621.63;5095334;28;20089;-59
2022/09/18 06:48:28;;;;;;;0.80;0.80;;;;;;;16.03;59.09;95625.25;5095379;28;20044;-59
2022/09/18 06:50:57;;;;;;;1.70;0.82;;;;;;;15.95;59.88;95636.34;5095378;28;20066;-59
2022/09/18 06:53:26;;;;;;;2.28;1.00;;;;;;;15.84;59.00;95652.13;5095119;28;20052;-59
2022/09/18 06:55:58;;;;;;;0.70;0.70;;;;;;;15.77;59.09;95655.22;5095112;28;20497;-59
2022/09/18 06:58:25;;;;;;;2.83;0.75;;;;;;;15.77;57.79;95668.38;5094954;28;20417;-59
2022/09/18 07:00:53;;;;;;;0.68;0.68;;;;;;;15.69;58.28;95664.63;5095151;28;20066;-59
2022/09/18 07:03:22;;;;;;;2.00;0.80;;;;;;;15.73;57.04;95671.34;5095132;28;20077;-59
2022/09/18 07:05:52;;;;;;;1.45;0.70;;;;;;;16.20;57.98;95678.56;5095278;28;20056;-59
2022/09/18 07:08:20;;;;;;;0.67;0.67;;;;;;;16.59;55.52;95678.31;5095088;28;20426;-59
2022/09/18 07:10:48;;;;;;;4.47;0.75;;;;;;;16.47;57.28;95701.19;5094135;28;20645;-59
2022/09/18 07:13:15;;;;;;;1.25;0.75;;;;;;;16.29;54.83;95697.16;5094618;28;20040;-59
2022/09/18 07:15:47;;;;;;;1.90;0.77;;;;;;;16.09;55.69;95688.13;5094904;28;20474;-59
2022/09/18 07:18:15;;;;;;;0.80;0.65;;;;;;;16.00;56.72;95694.06;5094871;28;20134;-59
2022/09/18 07:20:46;;;;;;;2.25;1.00;;;;;;;16.04;54.38;95699.00;5094770;28;20358;-59
2022/09/18 07:23:16;;;;;;;1.77;1.00;;;;;;;16.61;56.58;95703.63;5094590;28;20044;-60
2022/09/18 07:25:44;;;;;;;0.93;0.93;;;;;;;17.40;53.88;95714.44;5094727;28;20051;-60
2022/09/18 07:28:13;;;;;;;3.53;1.00;;;;;;;17.67;50.73;95706.09;5094522;28;20040;-60
2022/09/18 07:30:40;;;;;;;1.92;1.00;;;;;;;17.41;51.21;95700.25;5094440;28;20050;-60
2022/09/18 07:33:13;;;;;;;3.15;0.90;;;;;;;17.20;50.69;95711.53;5094343;28;20113;-60
2022/09/18 07:35:40;;;;;;;1.00;1.00;;;;;;;17.22;51.71;95714.06;5094346;28;20499;-60
2022/09/18 07:38:10;;;;;;;3.28;1.00;;;;;;;17.18;50.71;95713.44;5094270;28;20044;-60
2022/09/18 07:40:44;;;;;;;2.22;1.48;;;;;;;17.46;51.53;95721.03;5094348;28;20051;-60
2022/09/18 07:43:12;;;;;;;1.20;1.10;;;;;;;17.60;50.83;95720.75;5094604;28;20048;-60
2022/09/18 07:45:43;;;;;;;1.10;0.98;;;;;;;17.84;48.37;95722.41;5094081;28;20516;-60
2022/09/18 07:48:12;;;;;;;1.23;1.13;;;;;;;17.86;49.32;95722.28;5094172;28;20107;-60
2022/09/18 07:50:39;;;;;;;2.88;1.20;;;;;;;17.89;51.71;95741.41;5094281;28;20056;-60
2022/09/18 07:53:08;;;;;;;2.10;1.20;;;;;;;17.87;49.06;95732.75;5094315;28;20058;-60
2022/09/18 07:55:38;;;;;;;1.15;1.00;;;;;;;18.00;49.14;95737.88;5094023;28;20486;-60
2022/09/18 07:58:07;;;;;;;1.05;1.05;;;;;;;18.58;49.11;95738.56;5093914;28;20066;-60
2022/09/18 08:00:37;;;;;;;2.33;1.20;;;;;;;19.23;47.03;95731.44;5093883;28;20044;-60
2022/09/18 08:03:07;;;;;;;1.00;0.90;;;;;;;19.81;45.36;95722.84;5093842;28;20055;-60
2022/09/18 08:05:35;;;;;;;2.67;0.90;;;;;;;20.35;44.74;95734.97;5093809;28;20494;-60
2022/09/18 08:08:04;;;;;;;3.30;1.00;;;;;;;20.65;43.08;95729.66;5093795;28;20093;-60
2022/09/18 08:10:34;;;;;;;2.83;1.20;;;;;;;20.81;43.52;95737.88;5094054;28;20137;-60
2022/09/18 08:13:03;;;;;;;2.45;1.20;;;;;;;21.15;42.53;95743.72;5093708;28;20493;-60
2022/09/18 08:15:31;;;;;;;2.08;1.00;;;;;;;21.44;41.23;95740.97;5093548;28;20048;-60
2022/09/18 08:17:59;;;;;;;1.63;1.00;;;;;;;21.40;42.00;95736.09;5093313;28;20048;-61
2022/09/18 08:20:28;;;;;;;0.90;0.90;;;;;;;21.53;41.69;95728.63;5093434;28;20484;-60
2022/09/18 08:22:57;;;;;;;2.08;0.90;;;;;;;21.54;38.63;95730.28;5093778;28;20571;-60
2022/09/18 08:25:27;;;;;;;3.28;0.80;;;;;;;21.56;39.56;95732.81;5093674;28;20482;-60
2022/09/18 08:28:00;;;;;;;0.93;0.68;;;;;;;21.78;38.86;95730.75;5093547;28;20048;-60
2022/09/18 08:30:29;;;;;;;0.70;0.68;;;;;;;21.99;38.41;95737.63;5093707;28;20497;-60
2022/09/18 08:32:59;;;;;;;1.10;1.00;;;;;;;22.03;38.80;95739.84;5093520;28;20049;-60
2022/09/18 08:35:27;;;;;;;0.93;0.90;;;;;;;21.90;37.56;95747.34;5093432;28;20482;-60
2022/09/18 08:37:55;;;;;;;1.75;0.80;;;;;;;21.79;36.81;95754.56;5093339;28;20059;-60
2022/09/18 08:40:40;;;;;;;0.77;0.70;;;;;;;21.63;38.61;95755.16;5093474;28;20044;-60
2022/09/18 08:43:16;;;;;;;1.80;0.60;;;;;;;21.33;36.60;95749.13;5093386;28;20052;-60
2022/09/18 08:45:57;;;;;;;0.70;0.70;;;;;;;21.20;37.51;95755.59;5093352;28;20044;-60
2022/09/18 08:48:28;;;;;;;0.77;0.77;;;;;;;21.21;36.12;95759.09;5093280;28;20060;-60
2022/09/18 08:51:00;;;;;;;1.75;0.80;;;;;;;21.46;40.34;95762.94;5093301;28;20054;-60
2022/09/18 08:53:34;;;;;;;1.05;0.70;;;;;;;21.67;36.79;95755.72;5093319;28;20044;-60
2022/09/18 08:56:04;;;;;;;1.40;0.60;;;;;;;21.72;38.06;95761.44;5093154;28;20048;-60
2022/09/18 08:58:38;;;;;;;0.80;0.60;;;;;;;21.77;36.61;95766.34;5093141;28;20105;-60
2022/09/18 09:01:12;;;;;;;2.33;0.60;;;;;;;21.59;35.48;95778.56;5093159;28;20041;-60
2022/09/18 09:03:52;;;;;;;0.70;0.70;;;;;;;21.27;34.64;95779.78;5093100;28;20125;-60
2022/09/18 09:06:33;;;;;;;0.75;0.75;;;;;;;20.71;37.05;95788.38;5093029;28;20402;-60
2022/09/18 09:09:34;;;;;;;2.55;0.80;;;;;;;20.44;37.60;95781.09;5093229;28;20468;-60
2022/09/18 09:12:13;;;;;;;0.50;0.50;;;;;;;20.18;36.71;95790.44;5085834;28;20050;-60
2022/09/18 09:14:54;;;;;;;2.95;0.73;;;;;;;19.76;37.84;95786.09;5092956;28;20047;-59
2022/09/18 09:17:38;;;;;;;0.85;0.50;;;;;;;19.55;37.13;95797.59;5093101;28;20463;-60
2022/09/18 09:20:21;;;;;;;2.95;0.65;;;;;;;19.47;38.98;95783.31;5093071;28;20044;-60
2022/09/18 09:22:59;;;;;;;3.10;0.68;;;;;;;19.39;37.75;95787.44;5092946;28;20127;-60
2022/09/18 09:25:35;;;;;;;0.95;0.50;;;;;;;19.24;37.85;95784.34;5092968;28;20094;-60
2022/09/18 09:28:15;;;;;;;1.48;0.77;;;;;;;19.32;37.27;95783.66;5092862;28;20498;-60
2022/09/18 09:30:51;;;;;;;4.60;0.77;;;;;;;19.70;38.68;95774.22;5092114;28;20462;-60
2022/09/18 09:33:27;;;;;;;2.22;0.68;;;;;;;19.93;36.76;95773.97;5094413;28;20599;-60
2022/09/18 09:36:00;;;;;;;1.27;0.45;;;;;;;20.24;38.04;95782.88;5096404;28;20461;-60
2022/09/18 09:38:39;;;;;;;0.55;0.50;;;;;;;20.48;36.25;95786.97;5096473;28;20105;-60
2022/09/18 09:41:16;;;;;;;0.93;0.50;;;;;;;20.45;34.48;95798.72;5096608;28;20054;-60
2022/09/18 09:43:53;;;;;;;0.50;0.50;;;;;;;20.53;34.82;95800.69;5096641;28;20452;-60
2022/09/18 09:46:46;;;;;;;6.13;0.90;;;;;;;20.82;35.05;95802.47;5096570;28;20135;-60
2022/09/18 09:49:20;;;;;;;2.28;0.65;;;;;;;20.89;36.20;95803.59;5095985;28;20047;-60
2022/09/18 09:51:58;;;;;;;4.95;1.02;;;;;;;21.04;37.10;95803.22;5096635;28;20044;-60
2022/09/18 09:54:29;;;;;;;2.17;0.60;;;;;;;20.99;35.50;95794.81;5096392;28;20048;-59
2022/09/18 09:57:08;;;;;;;0.35;0.30;;;;;;;21.10;35.59;95783.19;5096208;28;20127;-60
2022/09/18 09:59:41;;;;;;;0.73;0.50;;;;;;;21.38;37.73;95786.78;5096179;28;20058;-60
2022/09/18 10:02:38;;;;;;;2.78;0.50;;;;;;;21.77;34.90;95798.28;5096379;28;20047;-60
2022/09/18 10:05:17;;;;;;;1.08;0.52;;;;;;;21.88;33.49;95792.75;5094695;28;20048;-60
2022/09/18 10:07:50;;;;;;;1.10;0.60;;;;;;;21.65;32.28;95795.78;5096193;28;20048;-60
2022/09/18 10:10:35;;;;;;;1.10;1.10;;;;;;;21.91;34.54;95807.63;5096166;28;20043;-60
2022/09/18 10:13:11;;;;;;;0.70;0.70;;;;;;;22.13;34.31;95801.06;5096138;28;20055;-60
2022/09/18 10:15:41;;;;;;;0.70;0.70;;;;;;;22.06;33.31;95803.44;5055731;28;20052;-60
2022/09/18 10:18:17;;;;;;;0.93;0.90;;;;;;;21.91;30.64;95799.63;5055481;28;20060;-60
2022/09/18 10:20:46;;;;;;;1.10;0.50;;;;;;;21.91;33.88;95811.09;5055635;28;20438;-60
2022/09/18 10:23:17;;;;;;;3.60;3.13;;;;;;;22.14;34.41;95813.38;5055484;28;20483;-60
2022/09/18 10:25:50;;;;;;;0.60;0.60;;;;;;;22.08;32.13;95801.50;5055543;28;20127;-60
2022/09/18 10:28:20;;;;;;;0.73;0.73;;;;;;;22.04;31.77;95805.44;5055696;28;20049;-59
2022/09/18 10:31:02;;;;;;;2.47;1.10;;;;;;;21.94;33.01;95832.09;5055543;28;20056;-59
2022/09/18 10:33:38;;;;;;;1.98;1.77;;;;;;;21.82;32.33;95828.78;5055507;28;20706;-60
2022/09/18 10:36:22;;;;;;;0.90;0.77;;;;;;;21.65;33.09;95827.72;5055363;28;20048;-59
2022/09/18 10:38:51;;;;;;;0.60;0.60;;;;;;;21.39;32.17;95820.34;5054694;28;20049;-60
2022/09/18 10:41:32;;;;;;;1.77;0.90;;;;;;;21.50;34.04;95826.47;5055327;28;20048;-60
2022/09/18 10:44:24;;;;;;;2.25;0.70;;;;;;;21.42;33.49;95829.84;5055217;28;20414;-60
2022/09/18 10:46:57;;;;;;;1.20;0.95;;;;;;;21.31;31.88;95833.53;5055175;28;20076;-60
2022/09/18 10:49:31;;;;;;;3.42;1.73;;;;;;;21.37;32.47;95830.28;5055072;28;20070;-60
2022/09/18 10:52:27;;;;;;;2.13;1.25;;;;;;;21.32;33.40;95846.69;5055104;28;20081;-60
2022/09/18 10:55:00;;;;;;;1.13;0.70;;;;;;;21.19;33.22;95852.28;5055087;28;20051;-60
2022/09/18 10:57:30;;;;;;;1.30;1.20;;;;;;;21.17;35.68;95848.09;5072734;28;20059;-60
2022/09/18 10:59:57;;;;;;;0.93;0.93;;;;;;;21.23;34.28;95852.84;5075062;28;20474;-60
2022/09/18 11:02:31;;;;;;;0.93;0.93;;;;;;;21.28;35.55;95845.28;5074828;28;20053;-60
2022/09/18 11:05:03;;;;;;;1.35;1.20;;;;;;;21.41;33.83;95846.81;5074222;28;20045;-60
2022/09/18 11:07:31;;;;;;;1.20;1.10;;;;;;;21.41;34.04;95842.34;5063969;28;20055;-60
2022/09/18 11:10:08;;;;;;;1.48;1.20;;;;;;;21.50;35.05;95850.44;5065060;28;20040;-60
2022/09/18 11:12:36;;;;;;;3.40;0.98;;;;;;;21.48;33.90;95855.88;5064930;28;20102;-60
2022/09/18 11:15:06;;;;;;;1.20;1.10;;;;;;;21.52;35.04;95849.28;5097197;28;20048;-60
2022/09/18 11:17:35;;;;;;;;;;;;;;;21.65;35.18;95864.09;5114444;28;20048;-60
2022/09/18 11:20:07;;;;;;;1.65;1.20;;;;;;;21.37;34.65;95858.72;5114983;28;19926;-60
2022/09/18 11:22:40;;;;;;;1.13;1.02;;;;;;;21.12;35.12;95855.66;5114911;28;20044;-60
2022/09/18 11:25:18;;;;;;;1.10;1.10;;;;;;;21.16;35.79;95857.88;5115070;28;20040;-60
2022/09/18 11:27:48;;;;;;;1.08;0.98;;;;;;;20.81;35.97;95867.25;5115171;28;20108;-60
2022/09/18 11:30:25;;;;;;;1.02;1.02;;;;;;;20.70;35.40;95855.78;5115197;28;20048;-60
2022/09/18 11:32:59;;;;;;;1.02;1.02;;;;;;;20.51;34.17;95843.31;5114775;28;20413;-60
2022/09/18 11:35:30;;;;;;;0.90;0.90;;;;;;;20.56;37.40;95864.97;5114933;28;20134;-60
2022/09/18 11:38:05;;;;;;;3.25;1.20;;;;;;;20.52;36.00;95854.75;5114779;28;20047;-60
2022/09/18 11:40:43;;;;;;;1.40;1.30;;;;;;;20.53;36.28;95862.59;5114630;28;20055;-60
2022/09/18 11:43:16;;;;;;;5.03;1.50;;;;;;;20.48;36.61;95861.31;5114758;28;20134;-59
2022/09/18 11:45:52;;;;;;;;;;;;;;;20.64;36.33;95860.78;5115105;28;20051;-60
2022/09/18 11:48:29;;;;;;;1.38;1.27;;;;;;;20.76;37.11;95861.50;5114471;28;19919;-60
2022/09/18 11:51:02;;;;;;;4.32;1.13;;;;;;;20.90;36.31;95871.75;5114563;28;20105;-60
2022/09/18 11:53:33;;;;;;;1.67;1.20;;;;;;;20.92;34.40;95866.31;5114544;28;20082;-60